Time;durP1;ratioP1;P1;durP2;ratioP2;P2;SDS_P1;SDS_P2;PMS_P1;PMS_P2;Temp;Humidity;BMP_temperature;BMP_pressure;BME280_temperature;BME280_humidity;BME280_pressure;Samples;Min_cycle;Max_cycle;Signal;HPM_P1;HPM_P2
2021/12/14 00:01:47;;;;;;;55.08;24.82;;;;;;;2.58;82.47;101419.59;1757708;80;20916;-70
2021/12/14 00:04:19;;;;;;;47.35;25.37;;;;;;;2.59;82.63;101412.67;1757946;81;20932;-71
2021/12/14 00:06:49;;;;;;;55.95;28.15;;;;;;;2.59;82.81;101416.11;1757738;81;20991;-70
2021/12/14 00:09:26;;;;;;;59.95;29.20;;;;;;;2.61;83.00;101416.95;1758375;81;20920;-71
2021/12/14 00:12:11;;;;;;;60.35;25.97;;;;;;;2.63;82.95;101415.64;1757887;81;21906;-70
2021/12/14 00:15:03;;;;;;;55.08;26.02;;;;;;;2.63;82.80;101428.14;1756128;81;20996;-69
2021/12/14 00:16:58;;;;;;;67.90;28.23;;;;;;;2.61;82.80;101418.25;1755493;80;21509;-71
2021/12/14 00:19:26;;;;;;;60.23;29.10;;;;;;;2.60;82.95;101413.95;1757812;80;20932;-71
2021/12/14 00:21:55;;;;;;;54.23;26.48;;;;;;;2.59;82.98;101402.32;1757912;81;20971;-69
2021/12/14 00:24:26;;;;;;;51.68;27.30;;;;;;;2.59;83.13;101403.17;1758040;80;21808;-70
2021/12/14 00:26:59;;;;;;;62.05;29.70;;;;;;;2.61;83.30;101399.27;1757822;81;20960;-71
2021/12/14 00:29:37;;;;;;;60.80;29.25;;;;;;;2.62;83.30;101393.20;1757622;81;21505;-71
2021/12/14 00:32:09;;;;;;;65.62;30.92;;;;;;;2.65;83.49;101390.59;1756742;81;20948;-71
2021/12/14 00:34:40;;;;;;;62.60;31.73;;;;;;;2.68;83.49;101389.23;1757679;80;20976;-70
2021/12/14 00:37:09;;;;;;;61.28;29.65;;;;;;;2.74;83.43;101393.48;1757629;81;21150;-70
2021/12/14 00:39:35;;;;;;;57.40;27.25;;;;;;;2.73;83.20;101390.45;1757951;81;20881;-71
2021/12/14 00:42:03;;;;;;;51.18;27.30;;;;;;;2.75;83.49;101392.14;1757715;81;20938;-69
2021/12/14 00:44:33;;;;;;;51.90;24.35;;;;;;;2.79;83.40;101379.56;1758069;80;20931;-70
2021/12/14 00:47:00;;;;;;;50.20;23.10;;;;;;;2.80;83.25;101386.89;1757827;80;20841;-70
2021/12/14 00:49:27;;;;;;;44.05;23.55;;;;;;;2.78;83.18;101386.94;1757910;81;21102;-70
2021/12/14 00:51:54;;;;;;;42.60;23.12;;;;;;;2.79;83.38;101392.96;1757648;81;20876;-70
2021/12/14 00:54:21;;;;;;;57.83;26.48;;;;;;;2.80;83.39;101394.66;1758497;80;20920;-70
2021/12/14 00:56:49;;;;;;;47.60;23.65;;;;;;;2.82;83.33;101394.20;1758391;81;21003;-69
2021/12/14 00:59:19;;;;;;;47.25;24.70;;;;;;;2.84;83.35;101401.06;1758165;81;20865;-71
2021/12/14 01:01:57;;;;;;;50.63;26.95;;;;;;;2.84;83.12;101394.59;1757757;81;21241;-71
2021/12/14 01:04:29;;;;;;;41.33;22.30;;;;;;;2.84;83.02;101380.78;1757865;81;21469;-71
2021/12/14 01:06:56;;;;;;;38.20;21.52;;;;;;;2.82;82.94;101382.09;1757777;81;21543;-70
2021/12/14 01:09:29;;;;;;;50.92;22.85;;;;;;;2.79;83.13;101378.27;1757863;81;21457;-70
2021/12/14 01:12:02;;;;;;;56.92;23.85;;;;;;;2.79;83.20;101374.83;1757708;80;20889;-71
2021/12/14 01:14:38;;;;;;;36.00;19.67;;;;;;;2.78;83.31;101379.58;1757838;81;21124;-70
2021/12/14 01:17:13;;;;;;;54.75;22.77;;;;;;;2.81;83.56;101378.25;1756898;81;20865;-69
2021/12/14 01:19:39;;;;;;;41.05;21.55;;;;;;;2.84;83.58;101382.08;1757521;81;21494;-70
2021/12/14 01:22:23;;;;;;;47.58;24.30;;;;;;;2.87;83.44;101380.76;1757764;81;20952;-71
2021/12/14 01:27:39;;;;;;;38.53;20.50;;;;;;;2.85;83.20;101382.06;1757719;80;21452;-70
2021/12/14 01:30:13;;;;;;;40.28;22.45;;;;;;;2.82;83.18;101380.80;1758042;81;21437;-71
2021/12/14 01:32:45;;;;;;;42.25;22.87;;;;;;;2.79;83.24;101383.89;1757863;80;20916;-70
2021/12/14 01:35:13;;;;;;;44.65;23.25;;;;;;;2.78;83.34;101375.28;1746875;80;21374;-71
2021/12/14 01:37:48;;;;;;;38.90;19.07;;;;;;;2.81;83.55;101376.96;1744680;81;20853;-70
2021/12/14 01:40:46;;;;;;;39.65;21.65;;;;;;;2.85;83.50;101388.99;1744826;81;22369;-70
2021/12/14 01:42:48;;;;;;;48.85;23.60;;;;;;;2.85;83.44;101382.06;1742983;81;21363;-73
2021/12/14 01:45:19;;;;;;;50.67;23.57;;;;;;;2.85;83.44;101383.81;1744376;82;20932;-70
2021/12/14 01:47:54;;;;;;;53.68;28.47;;;;;;;2.87;83.53;101388.08;1744290;81;20913;-70
2021/12/14 01:50:34;;;;;;;59.65;30.05;;;;;;;2.88;83.41;101393.66;1743680;81;21410;-71
2021/12/14 01:53:09;;;;;;;50.63;27.15;;;;;;;2.88;83.51;101385.89;1743720;80;21429;-71
2021/12/14 01:55:38;;;;;;;58.28;31.20;;;;;;;2.93;83.29;101382.37;1744459;80;20893;-70
2021/12/14 01:58:07;;;;;;;57.67;25.82;;;;;;;2.92;83.18;101380.23;1744616;81;21422;-71
2021/12/14 02:00:55;;;;;;;46.40;26.17;;;;;;;2.90;83.14;101380.25;1744597;82;21579;-71
2021/12/14 02:03:36;;;;;;;46.75;24.18;;;;;;;2.89;83.28;101378.55;1744705;81;20976;-72
2021/12/14 02:06:03;;;;;;;41.13;24.12;;;;;;;2.94;83.38;101387.99;1744882;81;21097;-71
2021/12/14 02:08:34;;;;;;;41.05;22.45;;;;;;;2.96;83.42;101383.61;1744599;81;20923;-71
2021/12/14 02:11:04;;;;;;;51.50;25.90;;;;;;;2.94;83.30;101375.89;1744847;82;20916;-70
2021/12/14 02:13:44;;;;;;;40.90;22.60;;;;;;;2.96;83.48;101375.84;1744473;81;20873;-70
2021/12/14 02:16:17;;;;;;;35.60;21.17;;;;;;;2.99;83.46;101375.81;1744513;81;20964;-71
2021/12/14 02:18:47;;;;;;;40.83;21.87;;;;;;;3.03;83.32;101380.91;1733875;82;21106;-70
2021/12/14 02:21:14;;;;;;;37.13;18.00;;;;;;;3.06;83.15;101382.14;1744712;81;20937;-72
2021/12/14 02:23:46;;;;;;;32.30;18.17;;;;;;;3.07;83.05;101382.58;1745766;81;20889;-70
2021/12/14 02:26:17;;;;;;;29.07;18.62;;;;;;;3.06;82.89;101376.11;1745362;81;21398;-72
2021/12/14 02:28:44;;;;;;;34.15;18.07;;;;;;;3.04;82.86;101378.72;1744739;80;20937;-70
2021/12/14 02:31:13;;;;;;;31.30;20.17;;;;;;;3.02;82.83;101380.92;1744431;81;21064;-71
2021/12/14 02:33:41;;;;;;;37.80;21.45;;;;;;;3.01;82.89;101368.87;1744587;81;20984;-70
2021/12/14 02:36:12;;;;;;;40.65;24.43;;;;;;;3.03;82.87;101374.88;1733857;81;21315;-70
2021/12/14 02:38:43;;;;;;;35.60;22.13;;;;;;;3.02;82.85;101375.75;1744833;81;20897;-71
2021/12/14 02:41:10;;;;;;;36.60;23.10;;;;;;;3.03;82.73;101378.33;1744668;80;21478;-70
2021/12/14 02:43:49;;;;;;;47.53;25.70;;;;;;;3.02;82.63;101369.27;1744417;81;21864;-71
2021/12/14 02:46:32;;;;;;;35.75;22.02;;;;;;;3.01;82.64;101364.98;1744592;81;21494;-70
2021/12/14 02:49:07;;;;;;;43.02;23.32;;;;;;;3.00;82.60;101373.62;1744801;82;20948;-70
2021/12/14 02:51:39;;;;;;;49.85;27.65;;;;;;;2.98;82.67;101365.02;1744478;81;20996;-69
2021/12/14 02:54:13;;;;;;;38.30;25.68;;;;;;;2.97;82.77;101366.76;1744818;80;21457;-70
2021/12/14 02:56:40;;;;;;;42.55;26.65;;;;;;;2.99;82.73;101365.00;1744793;81;21847;-70
2021/12/14 02:59:15;;;;;;;48.60;27.93;;;;;;;3.02;82.76;101370.56;1744748;81;20913;-70
2021/12/14 03:01:43;;;;;;;39.13;26.25;;;;;;;3.02;82.67;101373.16;1744551;81;20900;-72
2021/12/14 03:04:11;;;;;;;41.30;22.67;;;;;;;3.03;82.63;101371.84;1744667;80;20976;-70
2021/12/14 03:06:48;;;;;;;37.85;22.75;;;;;;;3.05;82.45;101373.13;1744693;81;20889;-69
2021/12/14 03:12:07;;;;;;;37.00;20.20;;;;;;;3.03;82.57;101379.62;1744665;81;20885;-71
2021/12/14 03:14:35;;;;;;;35.63;19.90;;;;;;;3.06;82.55;101382.59;1744415;81;20913;-71
2021/12/14 03:17:02;;;;;;;29.70;16.87;;;;;;;3.06;82.57;101380.00;1744468;82;20985;-70
2021/12/14 03:19:29;;;;;;;32.63;19.27;;;;;;;3.07;82.56;101368.77;1744639;81;21398;-70
2021/12/14 03:21:56;;;;;;;26.75;17.05;;;;;;;3.06;82.55;101361.41;1744679;81;21142;-70
2021/12/14 03:24:23;;;;;;;36.55;19.30;;;;;;;3.08;82.59;101360.11;1744556;81;20933;-69
2021/12/14 03:26:53;;;;;;;31.07;19.48;;;;;;;3.09;82.53;101351.02;1744531;81;20928;-69
2021/12/14 03:29:25;;;;;;;41.50;23.70;;;;;;;3.14;82.46;101363.05;1744495;81;20905;-71
2021/12/14 03:31:56;;;;;;;38.85;21.73;;;;;;;3.15;82.42;101360.41;1744507;81;20889;-70
2021/12/14 03:34:28;;;;;;;41.48;24.23;;;;;;;3.17;82.38;101362.98;1747438;80;21100;-69
2021/12/14 03:37:06;;;;;;;41.77;26.15;;;;;;;3.17;82.35;101361.69;1757736;81;20920;-69
2021/12/14 03:39:39;;;;;;;35.83;21.33;;;;;;;3.19;82.37;101369.00;1757681;80;20995;-70
2021/12/14 03:42:26;;;;;;;50.83;26.50;;;;;;;3.20;82.44;101368.98;1757918;81;20948;-70
2021/12/14 03:44:56;;;;;;;38.20;22.60;;;;;;;3.25;82.64;101365.86;1757897;81;20865;-70
2021/12/14 03:47:29;;;;;;;43.02;21.82;;;;;;;3.31;82.41;101377.42;1757447;80;21176;-70
2021/12/14 03:50:00;;;;;;;42.00;24.72;;;;;;;3.31;82.08;101374.83;1756943;80;21338;-72
2021/12/14 03:52:30;;;;;;;39.70;23.20;;;;;;;3.28;82.08;101375.31;1741346;81;20971;-74
2021/12/14 03:54:59;;;;;;;34.40;20.95;;;;;;;3.28;81.97;101377.45;1757693;81;21189;-71
2021/12/14 03:57:26;;;;;;;40.95;22.00;;;;;;;3.24;81.82;101377.53;1757858;80;20960;-69
2021/12/14 03:59:54;;;;;;;35.80;21.33;;;;;;;3.19;81.79;101388.44;1757851;80;21140;-71
2021/12/14 04:02:21;;;;;;;28.38;16.90;;;;;;;3.17;81.97;101394.93;1757747;81;20921;-71
2021/12/14 04:05:06;;;;;;;33.53;17.37;;;;;;;3.16;82.01;101405.31;1757681;80;20935;-71
2021/12/14 04:07:34;;;;;;;34.88;20.68;;;;;;;3.15;82.11;101404.91;1727798;82;20959;-71
2021/12/14 04:10:08;;;;;;;40.15;21.37;;;;;;;3.14;82.28;101408.40;1727157;81;21392;-70
2021/12/14 04:12:36;;;;;;;40.45;20.97;;;;;;;3.13;82.30;101408.81;1727659;82;20995;-70
2021/12/14 04:15:05;;;;;;;34.38;21.85;;;;;;;3.11;82.28;101405.39;1727491;82;21002;-72
2021/12/14 04:17:33;;;;;;;35.25;20.95;;;;;;;3.10;82.30;101410.17;1727703;82;20927;-71
2021/12/14 04:20:00;;;;;;;32.90;20.00;;;;;;;3.09;82.26;101407.15;1727571;83;20979;-73
2021/12/14 04:22:30;;;;;;;34.98;19.17;;;;;;;3.07;82.29;101410.23;1727797;81;21497;-71
2021/12/14 04:25:00;;;;;;;33.28;18.98;;;;;;;3.08;82.44;101415.81;1727947;82;21129;-72
2021/12/14 04:27:29;;;;;;;28.10;17.23;;;;;;;3.09;82.58;101413.63;1727566;83;20877;-70
2021/12/14 04:29:58;;;;;;;31.05;18.80;;;;;;;3.14;82.61;101418.31;1727961;82;20884;-71
2021/12/14 04:32:25;;;;;;;33.58;18.23;;;;;;;3.14;82.56;101411.84;1711289;83;20936;-70
2021/12/14 04:34:55;;;;;;;35.50;20.70;;;;;;;3.17;82.61;101410.92;1727708;82;21462;-70
2021/12/14 04:37:22;;;;;;;42.80;21.68;;;;;;;3.17;82.59;101413.07;1727706;81;21500;-70
2021/12/14 04:40:00;;;;;;;34.92;22.67;;;;;;;3.19;82.55;101415.65;1727580;82;21397;-71
2021/12/14 04:53:42;;;;;;;37.93;22.98;;;;;;;3.13;82.21;101423.06;1727580;83;20952;-72
2021/12/14 04:56:16;;;;;;;38.23;22.80;;;;;;;3.14;82.35;101427.84;1727759;82;20940;-69
2021/12/14 04:58:48;;;;;;;43.10;26.70;;;;;;;3.15;82.33;101426.94;1727160;82;21007;-71
2021/12/14 05:01:17;;;;;;;41.68;28.50;;;;;;;3.15;82.34;101428.23;1711148;83;20944;-69
2021/12/14 05:03:57;;;;;;;50.90;30.02;;;;;;;3.14;82.25;101428.68;1727773;82;21524;-70
2021/12/14 05:06:32;;;;;;;40.15;28.62;;;;;;;3.12;82.33;101426.55;1727508;82;20994;-71
2021/12/14 05:11:44;;;;;;;45.05;25.95;;;;;;;3.13;82.19;101415.30;1727521;82;20932;-70
2021/12/14 05:14:12;;;;;;;38.65;24.30;;;;;;;3.14;82.47;101419.61;1727578;82;20912;-71
2021/12/14 05:16:43;;;;;;;39.23;23.87;;;;;;;3.17;82.47;101418.25;1726807;82;21512;-71
2021/12/14 05:19:11;;;;;;;48.45;29.00;;;;;;;3.18;82.28;101421.28;1727746;82;20892;-71
2021/12/14 05:21:45;;;;;;;40.25;28.10;;;;;;;3.15;82.23;101409.64;1728140;82;21305;-69
2021/12/14 05:24:16;;;;;;;47.70;28.77;;;;;;;3.13;82.24;101405.38;1711649;83;21508;-71
2021/12/14 05:26:48;;;;;;;47.62;27.65;;;;;;;3.13;82.49;101419.18;1727504;82;20927;-71
2021/12/14 05:29:15;;;;;;;49.27;28.87;;;;;;;3.15;82.50;101421.31;1727908;83;21057;-70
2021/12/14 05:31:44;;;;;;;43.85;26.50;;;;;;;3.20;82.34;101427.71;1727731;82;20876;-70
2021/12/14 05:34:12;;;;;;;49.08;26.12;;;;;;;3.23;82.22;101432.86;1727812;81;20904;-73
2021/12/14 05:36:41;;;;;;;44.20;27.00;;;;;;;3.25;82.06;101440.17;1716072;82;21359;-70
2021/12/14 05:44:48;;;;;;;48.78;28.75;;;;;;;3.24;82.18;101444.48;1714076;82;20995;-71
2021/12/14 05:49:30;;;;;;;45.63;28.20;;;;;;;3.32;82.18;101443.08;1797606;78;22576;-71
2021/12/14 05:51:59;;;;;;;44.88;29.70;;;;;;;3.28;82.08;101450.03;1758126;80;21003;-71
2021/12/14 05:54:30;;;;;;;41.70;25.97;;;;;;;3.27;82.06;101452.23;1739066;81;21141;-70
2021/12/14 05:57:00;;;;;;;40.95;25.82;;;;;;;3.28;81.83;101447.89;1739003;81;20956;-71
2021/12/14 05:59:31;;;;;;;45.15;28.75;;;;;;;3.26;81.80;101451.79;1758261;81;21469;-70
2021/12/14 06:01:59;;;;;;;38.53;24.67;;;;;;;3.24;81.75;101451.41;1758245;80;20935;-72
2021/12/14 06:04:30;;;;;;;37.55;25.30;;;;;;;3.22;81.87;101457.91;1758245;80;20979;-71
2021/12/14 06:06:57;;;;;;;37.60;25.10;;;;;;;3.23;82.00;101458.33;1757962;81;21500;-70
2021/12/14 06:09:29;;;;;;;43.30;28.30;;;;;;;3.25;82.03;101455.73;1758114;80;21366;-71
2021/12/14 06:12:08;;;;;;;41.58;27.62;;;;;;;3.26;82.06;101456.97;1757512;80;20885;-74
2021/12/14 06:14:42;;;;;;;45.35;28.50;;;;;;;3.25;81.83;101450.55;1738715;81;21613;-72
2021/12/14 06:17:06;;;;;;;49.42;29.65;;;;;;;3.23;81.81;101451.00;1757547;80;20892;-72
2021/12/14 06:19:40;;;;;;;46.60;29.20;;;;;;;3.22;81.78;101441.05;1758374;81;21120;-71
2021/12/14 06:22:13;;;;;;;40.35;26.68;;;;;;;3.21;81.74;101442.39;1757862;80;20932;-71
2021/12/14 06:24:45;;;;;;;39.13;23.67;;;;;;;3.20;82.00;101443.26;1757142;80;20932;-71
2021/12/14 06:27:16;;;;;;;37.03;23.10;;;;;;;3.22;82.06;101441.05;1758410;80;21408;-71
2021/12/14 06:29:49;;;;;;;38.83;23.38;;;;;;;3.24;82.10;101444.48;1758203;81;20881;-71
2021/12/14 06:32:20;;;;;;;38.90;23.02;;;;;;;3.27;82.21;101443.16;1758064;80;21121;-72
2021/12/14 06:34:54;;;;;;;37.75;22.82;;;;;;;3.27;82.15;101448.34;1758230;80;21019;-70
2021/12/14 06:40:22;;;;;;;35.48;20.90;;;;;;;3.25;82.21;101439.73;1680135;85;21002;-70
2021/12/14 06:42:57;;;;;;;44.48;21.48;;;;;;;3.23;82.17;101444.52;1680436;84;20953;-72
2021/12/14 06:45:35;;;;;;;33.88;21.90;;;;;;;3.20;82.13;101446.73;1680435;84;21096;-71
2021/12/14 06:48:07;;;;;;;37.80;21.57;;;;;;;3.21;82.22;101457.95;1679312;85;21603;-71
2021/12/14 06:50:39;;;;;;;35.70;21.93;;;;;;;3.21;82.23;101466.57;1677802;85;20896;-70
2021/12/14 06:53:12;;;;;;;38.50;21.50;;;;;;;3.21;82.26;101466.57;1655072;85;21586;-70
2021/12/14 06:55:59;;;;;;;35.83;21.90;;;;;;;3.24;82.29;101472.14;1677800;85;21045;-72
2021/12/14 06:58:34;;;;;;;34.03;20.72;;;;;;;3.24;82.30;101473.44;1672466;84;21152;-71
2021/12/14 07:01:14;;;;;;;31.55;19.65;;;;;;;3.28;82.38;101482.44;1677322;85;20982;-71
2021/12/14 07:03:48;;;;;;;39.67;22.82;;;;;;;3.27;82.11;101481.19;1677601;85;21037;-72
2021/12/14 07:06:28;;;;;;;31.90;20.95;;;;;;;3.22;81.98;101488.16;1677397;84;20934;-72
2021/12/14 07:09:11;;;;;;;41.77;22.20;;;;;;;3.19;82.13;101488.22;1677577;85;21080;-71
2021/12/14 07:11:42;;;;;;;42.80;21.90;;;;;;;3.17;82.07;101479.60;1677492;84;22197;-71
2021/12/14 07:14:29;;;;;;;37.33;21.05;;;;;;;3.15;82.14;101486.09;1677254;84;21014;-71
2021/12/14 07:17:02;;;;;;;36.77;21.33;;;;;;;3.15;82.21;101479.62;1698613;81;20912;-71
2021/12/14 07:19:59;;;;;;;46.50;24.50;;;;;;;3.14;82.17;101476.63;1755037;81;21011;-71
2021/12/14 07:22:42;;;;;;;40.65;23.45;;;;;;;3.11;82.26;101472.35;1742748;80;20974;-69
2021/12/14 07:25:26;;;;;;;46.50;26.35;;;;;;;3.14;82.46;101479.22;1754596;80;21859;-70
2021/12/14 07:28:10;;;;;;;44.30;23.92;;;;;;;3.14;82.49;101479.22;1754754;80;21030;-70
2021/12/14 07:30:41;;;;;;;37.70;22.37;;;;;;;3.16;82.43;101480.05;1753776;81;21497;-70
2021/12/14 07:33:25;;;;;;;37.08;20.95;;;;;;;3.17;82.34;101479.16;1754822;81;21058;-72
2021/12/14 07:36:05;;;;;;;40.35;21.80;;;;;;;3.16;82.34;101475.28;1753889;80;20881;-70
2021/12/14 07:38:50;;;;;;;32.73;20.90;;;;;;;3.18;82.39;101488.66;1754802;80;21116;-70
2021/12/14 07:41:43;;;;;;;30.62;20.68;;;;;;;3.21;82.46;101488.60;1735631;80;21011;-69
2021/12/14 07:44:28;;;;;;;32.15;20.40;;;;;;;3.28;82.79;101485.47;1754711;80;20877;-70
2021/12/14 07:47:00;;;;;;;35.75;21.35;;;;;;;3.35;82.66;101482.34;1754600;80;20952;-73
2021/12/14 07:49:37;;;;;;;32.45;21.52;;;;;;;3.37;82.75;101480.14;1756933;80;20943;-76
2021/12/14 07:52:17;;;;;;;35.17;21.20;;;;;;;3.44;83.02;101489.97;1741150;81;21997;-74
2021/12/14 07:54:49;;;;;;;28.20;20.30;;;;;;;3.48;82.84;101489.89;1757804;81;20944;-77
2021/12/14 07:57:33;;;;;;;38.50;21.68;;;;;;;3.54;82.76;101500.61;1757971;80;20991;-78
2021/12/14 08:00:13;;;;;;;34.25;19.48;;;;;;;3.61;82.53;101504.81;1757817;80;21338;-78
2021/12/14 08:02:45;;;;;;;34.08;20.88;;;;;;;3.62;82.19;101512.99;1748606;80;20884;-78
2021/12/14 08:05:17;;;;;;;35.73;21.23;;;;;;;3.61;81.99;101519.08;1757893;81;21123;-78
2021/12/14 08:08:09;;;;;;;36.50;20.27;;;;;;;3.59;82.00;101510.91;1757887;80;20916;-76
2021/12/14 08:10:38;;;;;;;35.58;21.85;;;;;;;3.55;81.53;101497.13;1757638;81;20916;-77
2021/12/14 08:13:22;;;;;;;30.48;19.73;;;;;;;3.49;81.79;101484.25;1757711;80;20932;-79
2021/12/14 08:15:55;;;;;;;35.95;21.90;;;;;;;3.52;82.06;101489.41;1757722;80;21441;-76
2021/12/14 08:18:33;;;;;;;43.00;23.27;;;;;;;3.56;82.08;101481.12;1757842;81;21204;-77
2021/12/14 08:21:07;;;;;;;33.50;21.37;;;;;;;3.56;81.74;101475.93;1759245;81;20983;-77
2021/12/14 08:23:37;;;;;;;39.58;21.90;;;;;;;3.57;81.81;101478.95;1759369;81;21354;-78
2021/12/14 08:26:12;;;;;;;35.38;20.52;;;;;;;3.56;81.56;101487.19;1757782;81;20951;-77
2021/12/14 08:29:03;;;;;;;33.98;20.57;;;;;;;3.56;81.73;101488.48;1757668;81;20940;-77
2021/12/14 08:31:35;;;;;;;34.50;20.88;;;;;;;3.62;82.06;101488.80;1757870;81;21815;-77
2021/12/14 08:34:07;;;;;;;36.00;22.62;;;;;;;3.63;81.65;101484.05;1758064;80;20888;-79
2021/12/14 08:36:46;;;;;;;37.90;21.82;;;;;;;3.58;81.34;101484.55;1757900;81;20920;-77
2021/12/14 08:39:21;;;;;;;39.15;21.87;;;;;;;3.53;81.34;101484.63;1758049;80;20935;-78
2021/12/14 08:41:55;;;;;;;35.25;21.73;;;;;;;3.48;81.41;101487.30;1757947;80;20960;-77
2021/12/14 08:44:35;;;;;;;32.45;20.95;;;;;;;3.50;82.03;101491.17;1757702;80;21785;-77
2021/12/14 08:46:57;;;;;;;41.75;23.77;;;;;;;3.55;82.00;101477.67;1757052;81;20979;-71
2021/12/14 08:49:24;;;;;;;44.38;23.00;;;;;;;3.58;81.83;101476.77;1750244;81;21467;-69
2021/12/14 08:51:51;;;;;;;42.17;24.23;;;;;;;3.58;81.62;101468.57;1744473;80;20952;-69
2021/12/14 08:54:26;;;;;;;44.98;25.85;;;;;;;3.59;81.66;101460.34;1744762;81;21434;-71
2021/12/14 08:57:08;;;;;;;40.88;25.55;;;;;;;3.62;81.66;101458.98;1744736;82;21129;-71
2021/12/14 08:59:37;;;;;;;43.85;26.65;;;;;;;3.63;81.49;101461.55;1735906;81;21035;-71
2021/12/14 09:02:07;;;;;;;51.75;27.90;;;;;;;3.58;81.08;101458.61;1744595;81;20881;-69
2021/12/14 09:04:42;;;;;;;49.42;29.05;;;;;;;3.48;81.06;101466.55;1744835;81;21414;-70
2021/12/14 09:07:13;;;;;;;48.68;25.68;;;;;;;3.45;81.26;101465.77;1744720;81;20983;-70
2021/12/14 09:09:40;;;;;;;46.35;26.62;;;;;;;3.44;81.43;101462.30;1744542;81;21136;-71
2021/12/14 09:12:13;;;;;;;47.05;29.23;;;;;;;3.43;81.51;101454.12;1744468;82;20869;-69
2021/12/14 09:14:40;;;;;;;40.88;23.47;;;;;;;3.44;81.71;101452.38;1744634;81;20889;-69
2021/12/14 09:17:08;;;;;;;55.63;28.07;;;;;;;3.49;81.65;101458.33;1744332;81;20988;-70
2021/12/14 09:19:39;;;;;;;51.77;27.15;;;;;;;3.50;81.64;101453.57;1744587;81;20896;-70
2021/12/14 09:22:18;;;;;;;51.63;28.30;;;;;;;3.52;81.59;101451.81;1744335;81;21088;-70
2021/12/14 09:24:45;;;;;;;49.60;29.02;;;;;;;3.56;81.76;101443.09;1744315;81;21331;-68
2021/12/14 09:27:16;;;;;;;49.63;29.18;;;;;;;3.53;81.43;101431.46;1744628;81;20861;-70
2021/12/14 09:29:43;;;;;;;44.53;27.62;;;;;;;3.55;81.75;101434.04;1744332;81;21370;-69
2021/12/14 09:32:13;;;;;;;52.65;26.75;;;;;;;3.57;81.56;101435.72;1744381;80;20849;-71
2021/12/14 09:34:40;;;;;;;40.78;25.17;;;;;;;3.57;81.32;101431.83;1744338;81;21149;-70
2021/12/14 09:37:10;;;;;;;45.17;24.87;;;;;;;3.57;81.20;101437.47;1744633;81;20960;-70
2021/12/14 09:39:47;;;;;;;44.42;25.20;;;;;;;3.46;80.83;101434.61;1744413;81;21000;-68
2021/12/14 09:42:21;;;;;;;42.15;25.82;;;;;;;3.35;81.08;101433.09;1744765;80;20904;-70
2021/12/14 09:44:49;;;;;;;45.55;24.20;;;;;;;3.34;81.71;101424.91;1744524;81;20842;-70
2021/12/14 09:47:19;;;;;;;46.95;27.17;;;;;;;3.36;81.68;101427.89;1744728;82;21084;-70
2021/12/14 09:49:48;;;;;;;50.17;26.55;;;;;;;3.40;81.65;101425.66;1744211;81;20889;-70
2021/12/14 09:52:22;;;;;;;43.40;25.48;;;;;;;3.43;81.79;101442.89;1744597;81;20853;-70
2021/12/14 09:54:49;;;;;;;;;;;;;;;3.48;81.79;101454.03;1746920;81;21453;-69
2021/12/14 09:57:30;;;;;;;49.38;27.07;;;;;;;3.50;81.33;101458.31;1744740;81;20105;-72
2021/12/14 09:59:58;;;;;;;46.30;26.68;;;;;;;3.46;81.30;101446.27;1743510;81;21561;-70
2021/12/14 10:02:30;;;;;;;44.80;24.90;;;;;;;3.47;81.18;101441.97;1744660;81;20928;-71
2021/12/14 10:05:01;;;;;;;39.55;22.80;;;;;;;3.46;80.98;101435.05;1744587;80;21501;-73
2021/12/14 10:07:28;;;;;;;37.85;24.65;;;;;;;3.41;80.75;101421.33;1744484;81;20933;-72
2021/12/14 10:09:58;;;;;;;39.55;24.60;;;;;;;3.36;80.77;101427.01;1744389;81;20968;-71
2021/12/14 10:12:49;;;;;;;44.08;24.67;;;;;;;3.35;81.09;101440.42;1744720;81;21805;-73
2021/12/14 10:14:58;;;;;;;38.73;25.72;;;;;;;3.39;80.99;101441.23;1743208;81;20952;-73
2021/12/14 10:17:27;;;;;;;48.05;26.95;;;;;;;3.39;80.80;101430.41;1744291;81;21016;-73
2021/12/14 10:19:55;;;;;;;48.25;27.25;;;;;;;3.39;80.70;101435.59;1744196;80;20932;-74
2021/12/14 10:22:26;;;;;;;42.33;24.98;;;;;;;3.35;80.76;101439.12;1744526;81;20936;-74
2021/12/14 10:24:56;;;;;;;34.98;21.52;;;;;;;3.34;80.69;101433.53;1743913;81;21938;-72
2021/12/14 10:27:25;;;;;;;35.30;22.62;;;;;;;3.29;80.61;101428.43;1742864;81;21008;-72
2021/12/14 10:29:54;;;;;;;38.67;22.13;;;;;;;3.24;80.42;101426.78;1743736;81;20944;-73
2021/12/14 10:32:24;;;;;;;40.63;20.90;;;;;;;3.19;80.54;101426.86;1743955;81;20948;-73
2021/12/14 10:34:58;;;;;;;35.90;20.72;;;;;;;3.17;80.66;101424.73;1744129;82;20917;-73
2021/12/14 10:37:53;;;;;;;36.98;21.82;;;;;;;3.19;80.76;101415.65;1744800;81;21881;-71
2021/12/14 10:43:12;;;;;;;36.42;21.73;;;;;;;3.29;80.94;101406.40;1744782;81;20889;-73
2021/12/14 10:45:25;;;;;;;39.30;23.67;;;;;;;3.35;80.73;101396.80;1743061;81;20901;-73
2021/12/14 10:47:53;;;;;;;39.45;23.47;;;;;;;3.34;80.44;101406.31;1744881;81;20853;-73
2021/12/14 10:50:24;;;;;;;37.45;24.18;;;;;;;3.31;80.13;101407.23;1744516;81;21086;-74
2021/12/14 10:52:53;;;;;;;39.92;23.75;;;;;;;3.27;80.25;101401.67;1744404;81;20853;-73
2021/12/14 10:55:34;;;;;;;35.88;21.02;;;;;;;3.30;80.38;101404.66;1744661;82;21492;-71
2021/12/14 10:58:00;;;;;;;39.78;21.00;;;;;;;3.34;80.30;101414.09;1744459;81;20941;-72
2021/12/14 11:00:33;;;;;;;32.08;20.27;;;;;;;3.35;80.27;101425.31;1744559;80;20897;-76
2021/12/14 11:03:09;;;;;;;33.75;18.95;;;;;;;3.34;79.93;101427.05;1744699;81;21935;-70
2021/12/14 11:05:38;;;;;;;30.05;19.62;;;;;;;3.30;79.80;101419.76;1744421;81;20929;-71
2021/12/14 11:08:17;;;;;;;32.55;21.12;;;;;;;3.27;79.67;101424.16;1744730;81;20865;-71
2021/12/14 11:10:38;;;;;;;37.63;22.42;;;;;;;3.23;79.74;101432.86;1743805;81;21419;-71
2021/12/14 11:13:09;;;;;;;36.08;23.80;;;;;;;3.24;79.86;101418.56;1744709;81;20976;-72
2021/12/14 11:15:41;;;;;;;46.10;24.87;;;;;;;3.25;79.93;101418.99;1744728;81;21146;-71
2021/12/14 11:18:14;;;;;;;39.92;22.37;;;;;;;3.30;79.91;101430.58;1744650;81;20980;-71
2021/12/14 11:20:52;;;;;;;36.28;23.07;;;;;;;3.32;79.59;101432.26;1744095;80;21454;-70
2021/12/14 11:23:23;;;;;;;37.80;22.00;;;;;;;3.34;79.68;101427.05;1744931;81;20885;-70
2021/12/14 11:26:01;;;;;;;40.70;24.30;;;;;;;3.41;79.79;101426.51;1744512;82;21498;-72
2021/12/14 11:28:42;;;;;;;37.93;22.25;;;;;;;3.46;79.67;101414.31;1744411;81;21194;-71
2021/12/14 11:31:32;;;;;;;45.08;25.62;;;;;;;3.53;79.69;101406.41;1744643;80;20960;-70
2021/12/14 11:34:03;;;;;;;44.03;25.17;;;;;;;3.58;79.45;101417.12;1744410;81;21027;-70
2021/12/14 11:36:41;;;;;;;45.05;24.57;;;;;;;3.59;79.18;101430.52;1744760;81;20889;-71
2021/12/14 11:39:22;;;;;;;37.40;23.98;;;;;;;3.56;78.96;101429.25;1744669;82;21445;-71
2021/12/14 11:41:48;;;;;;;45.03;25.50;;;;;;;3.50;78.72;101429.78;1744105;81;21125;-73
2021/12/14 11:44:22;;;;;;;40.73;24.43;;;;;;;3.44;78.62;101425.15;1744434;81;20861;-71
2021/12/14 11:50:04;;;;;;;43.65;21.75;;;;;;;3.38;78.60;101431.73;1732137;81;20948;-71
2021/12/14 11:52:56;;;;;;;40.23;23.27;;;;;;;3.38;78.61;101421.36;1744028;80;21411;-72
2021/12/14 11:55:32;;;;;;;34.63;20.55;;;;;;;3.36;78.55;101421.83;1744422;81;21144;-71
2021/12/14 11:58:18;;;;;;;34.73;20.68;;;;;;;3.35;78.49;101413.64;1744560;81;20885;-70
2021/12/14 12:00:51;;;;;;;39.45;24.32;;;;;;;3.31;78.39;101400.75;1744561;81;20928;-69
2021/12/14 12:03:32;;;;;;;43.05;24.18;;;;;;;3.33;78.59;101395.52;1743822;81;20948;-70
2021/12/14 12:06:34;;;;;;;39.98;23.25;;;;;;;3.36;78.41;101391.59;1734178;82;20932;-70
2021/12/14 12:11:39;;;;;;;32.63;18.90;;;;;;;3.39;77.98;101407.53;1744403;80;20924;-70
2021/12/14 12:14:25;;;;;;;27.15;17.60;;;;;;;3.38;77.71;101413.16;1744738;81;21031;-70
2021/12/14 12:17:00;;;;;;;34.23;17.95;;;;;;;3.36;77.32;101417.52;1744504;81;20983;-69
2021/12/14 12:19:28;;;;;;;26.52;18.12;;;;;;;3.33;77.43;101426.63;1743474;81;21016;-70
2021/12/14 12:21:55;;;;;;;27.65;18.15;;;;;;;3.36;77.09;101437.37;1744512;82;21492;-71